sensor_id;sensor_type;location;lat;lon;timestamp;P1;durP1;ratioP1;P2;durP2;ratioP2
15816;SDS011;8009;50.070;8.232;2023-04-23T00:00:44;19.77;;;18.97;;
15816;SDS011;8009;50.070;8.232;2023-04-23T00:03:15;14.80;;;14.27;;
15816;SDS011;8009;50.070;8.232;2023-04-23T00:05:47;16.00;;;15.40;;
15816;SDS011;8009;50.070;8.232;2023-04-23T00:08:22;15.20;;;14.60;;
15816;SDS011;8009;50.070;8.232;2023-04-23T00:10:50;15.80;;;15.20;;
15816;SDS011;8009;50.070;8.232;2023-04-23T00:13:19;18.53;;;17.83;;
15816;SDS011;8009;50.070;8.232;2023-04-23T00:15:48;16.67;;;16.07;;
15816;SDS011;8009;50.070;8.232;2023-04-23T00:18:17;16.57;;;15.97;;
15816;SDS011;8009;50.070;8.232;2023-04-23T00:20:45;17.57;;;16.90;;
15816;SDS011;8009;50.070;8.232;2023-04-23T00:23:13;16.27;;;15.67;;
15816;SDS011;8009;50.070;8.232;2023-04-23T00:25:45;15.10;;;14.50;;
15816;SDS011;8009;50.070;8.232;2023-04-23T00:28:13;16.10;;;15.50;;
15816;SDS011;8009;50.070;8.232;2023-04-23T00:30:42;20.57;;;19.77;;
15816;SDS011;8009;50.070;8.232;2023-04-23T00:33:10;16.40;;;15.80;;
15816;SDS011;8009;50.070;8.232;2023-04-23T00:35:41;18.67;;;17.97;;
15816;SDS011;8009;50.070;8.232;2023-04-23T00:38:09;15.77;;;15.17;;
15816;SDS011;8009;50.070;8.232;2023-04-23T00:40:37;16.37;;;15.77;;
15816;SDS011;8009;50.070;8.232;2023-04-23T00:43:09;17.87;;;17.17;;
15816;SDS011;8009;50.070;8.232;2023-04-23T00:45:39;17.57;;;16.90;;
15816;SDS011;8009;50.070;8.232;2023-04-23T00:48:08;18.27;;;17.57;;
15816;SDS011;8009;50.070;8.232;2023-04-23T00:50:37;16.50;;;15.90;;
15816;SDS011;8009;50.070;8.232;2023-04-23T00:53:06;19.27;;;18.57;;
15816;SDS011;8009;50.070;8.232;2023-04-23T00:55:34;16.60;;;16.00;;
15816;SDS011;8009;50.070;8.232;2023-04-23T00:58:02;17.57;;;16.87;;
15816;SDS011;8009;50.070;8.232;2023-04-23T01:00:33;13.88;;;13.38;;
15816;SDS011;8009;50.070;8.232;2023-04-23T01:03:07;16.37;;;15.77;;
15816;SDS011;8009;50.070;8.232;2023-04-23T01:05:37;14.40;;;13.90;;
15816;SDS011;8009;50.070;8.232;2023-04-23T01:08:05;18.03;;;17.33;;
15816;SDS011;8009;50.070;8.232;2023-04-23T01:10:34;15.57;;;14.97;;
15816;SDS011;8009;50.070;8.232;2023-04-23T01:13:02;18.87;;;18.17;;
15816;SDS011;8009;50.070;8.232;2023-04-23T01:15:34;17.57;;;16.87;;
15816;SDS011;8009;50.070;8.232;2023-04-23T01:18:02;18.57;;;17.87;;
15816;SDS011;8009;50.070;8.232;2023-04-23T01:20:32;18.67;;;17.97;;
15816;SDS011;8009;50.070;8.232;2023-04-23T01:23:03;16.10;;;15.50;;
15816;SDS011;8009;50.070;8.232;2023-04-23T01:25:32;16.73;;;16.13;;
15816;SDS011;8009;50.070;8.232;2023-04-23T01:28:01;17.97;;;17.27;;
15816;SDS011;8009;50.070;8.232;2023-04-23T01:30:30;18.00;;;17.30;;
15816;SDS011;8009;50.070;8.232;2023-04-23T01:33:00;15.97;;;15.37;;
15816;SDS011;8009;50.070;8.232;2023-04-23T01:35:29;19.13;;;18.43;;
15816;SDS011;8009;50.070;8.232;2023-04-23T01:37:58;15.97;;;15.37;;
15816;SDS011;8009;50.070;8.232;2023-04-23T01:40:32;16.57;;;15.97;;
15816;SDS011;8009;50.070;8.232;2023-04-23T01:43:00;17.47;;;16.77;;
15816;SDS011;8009;50.070;8.232;2023-04-23T01:45:29;15.67;;;15.07;;
15816;SDS011;8009;50.070;8.232;2023-04-23T01:47:57;18.60;;;17.90;;
15816;SDS011;8009;50.070;8.232;2023-04-23T01:50:27;20.77;;;19.97;;
15816;SDS011;8009;50.070;8.232;2023-04-23T01:52:56;18.27;;;17.57;;
15816;SDS011;8009;50.070;8.232;2023-04-23T01:55:24;17.90;;;17.20;;
15816;SDS011;8009;50.070;8.232;2023-04-23T01:57:56;16.97;;;16.37;;
15816;SDS011;8009;50.070;8.232;2023-04-23T02:00:25;18.27;;;17.57;;
15816;SDS011;8009;50.070;8.232;2023-04-23T02:02:53;21.37;;;20.57;;
15816;SDS011;8009;50.070;8.232;2023-04-23T02:05:21;17.33;;;16.67;;
15816;SDS011;8009;50.070;8.232;2023-04-23T02:07:53;20.27;;;19.47;;
15816;SDS011;8009;50.070;8.232;2023-04-23T02:10:22;21.27;;;20.47;;
15816;SDS011;8009;50.070;8.232;2023-04-23T02:12:51;18.63;;;17.93;;
15816;SDS011;8009;50.070;8.232;2023-04-23T02:15:22;18.93;;;18.23;;
15816;SDS011;8009;50.070;8.232;2023-04-23T02:17:50;20.03;;;19.23;;
15816;SDS011;8009;50.070;8.232;2023-04-23T02:20:19;16.13;;;15.53;;
15816;SDS011;8009;50.070;8.232;2023-04-23T02:22:48;18.55;;;17.85;;
15816;SDS011;8009;50.070;8.232;2023-04-23T02:25:17;20.20;;;19.40;;
15816;SDS011;8009;50.070;8.232;2023-04-23T02:27:46;18.33;;;17.63;;
15816;SDS011;8009;50.070;8.232;2023-04-23T02:30:14;15.43;;;14.83;;
15816;SDS011;8009;50.070;8.232;2023-04-23T02:32:45;19.50;;;18.80;;
15816;SDS011;8009;50.070;8.232;2023-04-23T02:35:14;19.00;;;18.30;;
15816;SDS011;8009;50.070;8.232;2023-04-23T02:37:43;20.10;;;19.30;;
15816;SDS011;8009;50.070;8.232;2023-04-23T02:40:12;18.33;;;17.63;;
15816;SDS011;8009;50.070;8.232;2023-04-23T02:42:40;18.30;;;17.60;;
15816;SDS011;8009;50.070;8.232;2023-04-23T02:45:09;19.20;;;18.50;;
15816;SDS011;8009;50.070;8.232;2023-04-23T02:47:38;18.80;;;18.10;;
15816;SDS011;8009;50.070;8.232;2023-04-23T02:50:09;17.87;;;17.17;;
15816;SDS011;8009;50.070;8.232;2023-04-23T02:52:38;20.00;;;19.23;;
15816;SDS011;8009;50.070;8.232;2023-04-23T02:55:07;18.80;;;18.10;;
15816;SDS011;8009;50.070;8.232;2023-04-23T02:57:36;21.17;;;20.37;;
15816;SDS011;8009;50.070;8.232;2023-04-23T03:00:05;18.53;;;17.83;;
15816;SDS011;8009;50.070;8.232;2023-04-23T03:02:36;16.77;;;16.17;;
15816;SDS011;8009;50.070;8.232;2023-04-23T03:05:05;18.40;;;17.70;;
15816;SDS011;8009;50.070;8.232;2023-04-23T03:07:36;17.63;;;16.97;;
15816;SDS011;8009;50.070;8.232;2023-04-23T03:10:05;17.13;;;16.53;;
15816;SDS011;8009;50.070;8.232;2023-04-23T03:12:35;19.70;;;18.90;;
15816;SDS011;8009;50.070;8.232;2023-04-23T03:15:03;18.80;;;18.10;;
15816;SDS011;8009;50.070;8.232;2023-04-23T03:17:32;17.80;;;17.10;;
15816;SDS011;8009;50.070;8.232;2023-04-23T03:20:02;19.07;;;18.37;;
15816;SDS011;8009;50.070;8.232;2023-04-23T03:22:33;19.27;;;18.57;;
15816;SDS011;8009;50.070;8.232;2023-04-23T03:25:02;19.60;;;18.87;;
15816;SDS011;8009;50.070;8.232;2023-04-23T03:27:30;15.70;;;15.10;;
15816;SDS011;8009;50.070;8.232;2023-04-23T03:29:59;18.30;;;17.60;;
15816;SDS011;8009;50.070;8.232;2023-04-23T03:32:28;20.93;;;20.13;;
15816;SDS011;8009;50.070;8.232;2023-04-23T03:34:56;17.33;;;16.73;;
15816;SDS011;8009;50.070;8.232;2023-04-23T03:37:25;18.90;;;18.20;;
15816;SDS011;8009;50.070;8.232;2023-04-23T03:39:56;18.63;;;17.93;;
15816;SDS011;8009;50.070;8.232;2023-04-23T03:42:27;17.10;;;16.47;;
15816;SDS011;8009;50.070;8.232;2023-04-23T03:44:55;17.27;;;16.67;;
15816;SDS011;8009;50.070;8.232;2023-04-23T03:47:24;19.80;;;19.07;;
15816;SDS011;8009;50.070;8.232;2023-04-23T03:49:53;18.57;;;17.87;;
15816;SDS011;8009;50.070;8.232;2023-04-23T03:52:21;16.70;;;16.10;;
15816;SDS011;8009;50.070;8.232;2023-04-23T03:54:51;18.47;;;17.77;;
15816;SDS011;8009;50.070;8.232;2023-04-23T03:57:22;17.83;;;17.13;;
15816;SDS011;8009;50.070;8.232;2023-04-23T03:59:50;15.23;;;14.67;;
15816;SDS011;8009;50.070;8.232;2023-04-23T04:02:19;18.90;;;18.20;;
15816;SDS011;8009;50.070;8.232;2023-04-23T04:04:48;18.07;;;17.37;;
15816;SDS011;8009;50.070;8.232;2023-04-23T04:07:16;20.63;;;19.83;;
15816;SDS011;8009;50.070;8.232;2023-04-23T04:09:45;17.10;;;16.50;;
15816;SDS011;8009;50.070;8.232;2023-04-23T04:12:13;20.37;;;19.57;;
15816;SDS011;8009;50.070;8.232;2023-04-23T04:14:45;17.60;;;16.93;;
15816;SDS011;8009;50.070;8.232;2023-04-23T04:17:13;17.60;;;16.90;;
15816;SDS011;8009;50.070;8.232;2023-04-23T04:19:41;17.90;;;17.20;;
15816;SDS011;8009;50.070;8.232;2023-04-23T04:22:10;17.03;;;16.43;;
15816;SDS011;8009;50.070;8.232;2023-04-23T04:24:38;16.80;;;16.20;;
15816;SDS011;8009;50.070;8.232;2023-04-23T04:27:07;17.73;;;17.03;;
15816;SDS011;8009;50.070;8.232;2023-04-23T04:29:36;14.93;;;14.37;;
15816;SDS011;8009;50.070;8.232;2023-04-23T04:32:08;18.03;;;17.33;;
15816;SDS011;8009;50.070;8.232;2023-04-23T04:34:37;15.27;;;14.67;;
15816;SDS011;8009;50.070;8.232;2023-04-23T04:37:08;16.10;;;15.50;;
15816;SDS011;8009;50.070;8.232;2023-04-23T04:39:37;17.83;;;17.13;;
15816;SDS011;8009;50.070;8.232;2023-04-23T04:42:08;16.47;;;15.87;;
15816;SDS011;8009;50.070;8.232;2023-04-23T04:44:37;15.27;;;14.67;;
15816;SDS011;8009;50.070;8.232;2023-04-23T04:47:10;16.60;;;16.00;;
15816;SDS011;8009;50.070;8.232;2023-04-23T04:49:40;16.17;;;15.57;;
15816;SDS011;8009;50.070;8.232;2023-04-23T04:52:09;15.77;;;15.17;;
15816;SDS011;8009;50.070;8.232;2023-04-23T04:54:37;14.20;;;13.70;;
15816;SDS011;8009;50.070;8.232;2023-04-23T04:57:05;18.43;;;17.73;;
15816;SDS011;8009;50.070;8.232;2023-04-23T04:59:33;17.63;;;16.93;;
15816;SDS011;8009;50.070;8.232;2023-04-23T05:02:02;15.97;;;15.37;;
15816;SDS011;8009;50.070;8.232;2023-04-23T05:04:33;14.03;;;13.53;;
15816;SDS011;8009;50.070;8.232;2023-04-23T05:07:01;15.70;;;15.10;;
15816;SDS011;8009;50.070;8.232;2023-04-23T05:09:29;16.93;;;16.33;;
15816;SDS011;8009;50.070;8.232;2023-04-23T05:11:58;19.93;;;19.20;;
15816;SDS011;8009;50.070;8.232;2023-04-23T05:14:31;18.13;;;17.43;;
15816;SDS011;8009;50.070;8.232;2023-04-23T05:16:59;20.50;;;19.70;;
15816;SDS011;8009;50.070;8.232;2023-04-23T05:19:28;16.63;;;16.03;;
15816;SDS011;8009;50.070;8.232;2023-04-23T05:21:59;17.20;;;16.60;;
15816;SDS011;8009;50.070;8.232;2023-04-23T05:24:27;16.00;;;15.40;;
15816;SDS011;8009;50.070;8.232;2023-04-23T05:26:56;16.90;;;16.30;;
15816;SDS011;8009;50.070;8.232;2023-04-23T05:29:25;15.30;;;14.73;;
15816;SDS011;8009;50.070;8.232;2023-04-23T05:31:53;17.30;;;16.63;;
15816;SDS011;8009;50.070;8.232;2023-04-23T05:34:21;16.30;;;15.70;;
15816;SDS011;8009;50.070;8.232;2023-04-23T05:36:50;15.83;;;15.23;;
15816;SDS011;8009;50.070;8.232;2023-04-23T05:39:21;15.63;;;15.03;;
15816;SDS011;8009;50.070;8.232;2023-04-23T05:41:49;16.67;;;16.07;;
15816;SDS011;8009;50.070;8.232;2023-04-23T05:44:17;16.80;;;16.20;;
15816;SDS011;8009;50.070;8.232;2023-04-23T05:46:46;15.57;;;14.97;;
15816;SDS011;8009;50.070;8.232;2023-04-23T05:49:14;17.83;;;17.13;;
15816;SDS011;8009;50.070;8.232;2023-04-23T05:51:42;18.90;;;18.20;;
15816;SDS011;8009;50.070;8.232;2023-04-23T05:54:11;17.47;;;16.80;;
15816;SDS011;8009;50.070;8.232;2023-04-23T05:56:42;16.13;;;15.53;;
15816;SDS011;8009;50.070;8.232;2023-04-23T05:59:10;15.30;;;14.70;;
15816;SDS011;8009;50.070;8.232;2023-04-23T06:01:38;15.30;;;14.70;;
15816;SDS011;8009;50.070;8.232;2023-04-23T06:04:07;15.43;;;14.83;;
15816;SDS011;8009;50.070;8.232;2023-04-23T06:06:35;16.47;;;15.87;;
15816;SDS011;8009;50.070;8.232;2023-04-23T06:09:03;16.97;;;16.33;;
15816;SDS011;8009;50.070;8.232;2023-04-23T06:11:32;18.83;;;18.13;;
15816;SDS011;8009;50.070;8.232;2023-04-23T06:14:03;17.40;;;16.73;;
15816;SDS011;8009;50.070;8.232;2023-04-23T06:16:34;18.23;;;17.53;;
15816;SDS011;8009;50.070;8.232;2023-04-23T06:19:03;18.87;;;18.17;;
15816;SDS011;8009;50.070;8.232;2023-04-23T06:21:31;17.73;;;17.03;;
15816;SDS011;8009;50.070;8.232;2023-04-23T06:23:59;17.63;;;16.93;;
15816;SDS011;8009;50.070;8.232;2023-04-23T06:26:28;18.10;;;17.40;;
15816;SDS011;8009;50.070;8.232;2023-04-23T06:28:56;16.73;;;16.13;;
15816;SDS011;8009;50.070;8.232;2023-04-23T06:31:28;15.20;;;14.60;;
15816;SDS011;8009;50.070;8.232;2023-04-23T06:33:58;17.27;;;16.67;;
15816;SDS011;8009;50.070;8.232;2023-04-23T06:36:26;14.53;;;14.03;;
15816;SDS011;8009;50.070;8.232;2023-04-23T06:38:59;15.80;;;15.20;;
15816;SDS011;8009;50.070;8.232;2023-04-23T06:41:27;24.37;;;23.27;;
15816;SDS011;8009;50.070;8.232;2023-04-23T06:43:55;19.97;;;19.17;;
15816;SDS011;8009;50.070;8.232;2023-04-23T06:46:24;16.53;;;15.93;;
15816;SDS011;8009;50.070;8.232;2023-04-23T06:48:55;18.37;;;17.67;;
15816;SDS011;8009;50.070;8.232;2023-04-23T06:51:24;17.83;;;17.13;;
15816;SDS011;8009;50.070;8.232;2023-04-23T06:53:52;17.57;;;16.87;;
15816;SDS011;8009;50.070;8.232;2023-04-23T06:56:21;18.93;;;18.23;;
15816;SDS011;8009;50.070;8.232;2023-04-23T06:58:50;16.50;;;15.87;;
15816;SDS011;8009;50.070;8.232;2023-04-23T07:01:19;18.70;;;18.00;;
15816;SDS011;8009;50.070;8.232;2023-04-23T07:03:47;13.87;;;13.37;;
15816;SDS011;8009;50.070;8.232;2023-04-23T07:06:21;16.77;;;16.17;;
15816;SDS011;8009;50.070;8.232;2023-04-23T07:08:49;15.37;;;14.77;;
15816;SDS011;8009;50.070;8.232;2023-04-23T07:11:17;17.80;;;17.10;;
15816;SDS011;8009;50.070;8.232;2023-04-23T07:13:46;16.00;;;15.40;;
15816;SDS011;8009;50.070;8.232;2023-04-23T07:16:14;16.70;;;16.10;;
15816;SDS011;8009;50.070;8.232;2023-04-23T07:18:42;14.40;;;13.90;;
15816;SDS011;8009;50.070;8.232;2023-04-23T07:21:11;17.80;;;17.10;;
15816;SDS011;8009;50.070;8.232;2023-04-23T07:23:42;14.13;;;13.63;;
15816;SDS011;8009;50.070;8.232;2023-04-23T07:26:10;16.53;;;15.93;;
15816;SDS011;8009;50.070;8.232;2023-04-23T07:28:40;15.53;;;14.93;;
15816;SDS011;8009;50.070;8.232;2023-04-23T07:31:10;16.43;;;15.83;;
15816;SDS011;8009;50.070;8.232;2023-04-23T07:33:38;15.17;;;14.57;;
15816;SDS011;8009;50.070;8.232;2023-04-23T07:36:07;14.03;;;13.53;;
15816;SDS011;8009;50.070;8.232;2023-04-23T07:38:35;14.63;;;14.13;;
15816;SDS011;8009;50.070;8.232;2023-04-23T07:41:06;16.83;;;16.23;;
15816;SDS011;8009;50.070;8.232;2023-04-23T07:43:34;15.57;;;14.97;;
15816;SDS011;8009;50.070;8.232;2023-04-23T07:46:03;15.80;;;15.20;;
15816;SDS011;8009;50.070;8.232;2023-04-23T07:48:32;14.00;;;13.50;;
15816;SDS011;8009;50.070;8.232;2023-04-23T07:51:00;13.33;;;12.83;;
15816;SDS011;8009;50.070;8.232;2023-04-23T07:53:30;15.87;;;15.27;;
15816;SDS011;8009;50.070;8.232;2023-04-23T07:55:58;20.40;;;19.60;;
15816;SDS011;8009;50.070;8.232;2023-04-23T07:58:30;16.43;;;15.83;;
15816;SDS011;8009;50.070;8.232;2023-04-23T08:01:00;15.80;;;15.20;;
15816;SDS011;8009;50.070;8.232;2023-04-23T08:03:28;16.73;;;16.13;;
15816;SDS011;8009;50.070;8.232;2023-04-23T08:05:57;18.60;;;17.90;;
15816;SDS011;8009;50.070;8.232;2023-04-23T08:08:29;17.37;;;16.70;;
15816;SDS011;8009;50.070;8.232;2023-04-23T08:21:21;18.43;;;17.73;;
15816;SDS011;8009;50.070;8.232;2023-04-23T08:37:28;15.57;;;14.97;;
15816;SDS011;8009;50.070;8.232;2023-04-23T08:42:35;15.43;;;14.83;;
15816;SDS011;8009;50.070;8.232;2023-04-23T08:45:07;27.63;;;26.33;;
15816;SDS011;8009;50.070;8.232;2023-04-23T08:47:37;16.30;;;15.70;;
15816;SDS011;8009;50.070;8.232;2023-04-23T08:50:07;14.57;;;14.07;;
15816;SDS011;8009;50.070;8.232;2023-04-23T08:52:40;14.50;;;14.00;;
15816;SDS011;8009;50.070;8.232;2023-04-23T08:55:13;17.67;;;16.97;;
15816;SDS011;8009;50.070;8.232;2023-04-23T08:57:43;16.17;;;15.57;;
15816;SDS011;8009;50.070;8.232;2023-04-23T09:00:14;15.23;;;14.63;;
15816;SDS011;8009;50.070;8.232;2023-04-23T09:02:45;15.70;;;15.10;;
15816;SDS011;8009;50.070;8.232;2023-04-23T09:05:15;14.47;;;13.83;;
15816;SDS011;8009;50.070;8.232;2023-04-23T09:07:46;14.60;;;14.10;;
15816;SDS011;8009;50.070;8.232;2023-04-23T09:10:14;15.80;;;15.20;;
15816;SDS011;8009;50.070;8.232;2023-04-23T09:12:43;14.03;;;13.53;;
15816;SDS011;8009;50.070;8.232;2023-04-23T09:15:12;13.77;;;13.27;;
15816;SDS011;8009;50.070;8.232;2023-04-23T09:17:41;14.67;;;14.10;;
15816;SDS011;8009;50.070;8.232;2023-04-23T09:20:11;14.67;;;14.17;;
15816;SDS011;8009;50.070;8.232;2023-04-23T09:22:42;13.53;;;13.03;;
15816;SDS011;8009;50.070;8.232;2023-04-23T09:25:15;13.67;;;13.17;;
15816;SDS011;8009;50.070;8.232;2023-04-23T09:27:45;13.83;;;13.33;;
15816;SDS011;8009;50.070;8.232;2023-04-23T09:30:18;13.87;;;13.37;;
15816;SDS011;8009;50.070;8.232;2023-04-23T09:38:01;15.90;;;15.30;;
15816;SDS011;8009;50.070;8.232;2023-04-23T09:40:34;14.10;;;13.60;;
15816;SDS011;8009;50.070;8.232;2023-04-23T09:43:03;13.90;;;13.40;;
15816;SDS011;8009;50.070;8.232;2023-04-23T09:45:32;15.33;;;14.73;;
15816;SDS011;8009;50.070;8.232;2023-04-23T09:48:02;13.70;;;13.20;;
15816;SDS011;8009;50.070;8.232;2023-04-23T09:50:33;16.53;;;15.93;;
15816;SDS011;8009;50.070;8.232;2023-04-23T09:53:03;12.73;;;12.23;;
15816;SDS011;8009;50.070;8.232;2023-04-23T09:55:34;13.43;;;12.93;;
15816;SDS011;8009;50.070;8.232;2023-04-23T09:58:06;12.67;;;12.17;;
15816;SDS011;8009;50.070;8.232;2023-04-23T10:00:39;13.23;;;12.73;;
15816;SDS011;8009;50.070;8.232;2023-04-23T10:03:09;12.73;;;12.23;;
15816;SDS011;8009;50.070;8.232;2023-04-23T10:05:37;14.03;;;13.53;;
15816;SDS011;8009;50.070;8.232;2023-04-23T10:08:07;13.53;;;13.03;;
15816;SDS011;8009;50.070;8.232;2023-04-23T10:10:41;12.53;;;12.03;;
15816;SDS011;8009;50.070;8.232;2023-04-23T10:13:12;14.13;;;13.63;;
15816;SDS011;8009;50.070;8.232;2023-04-23T10:15:41;11.77;;;11.37;;
15816;SDS011;8009;50.070;8.232;2023-04-23T10:18:13;13.27;;;12.77;;
15816;SDS011;8009;50.070;8.232;2023-04-23T10:20:41;12.50;;;12.00;;
15816;SDS011;8009;50.070;8.232;2023-04-23T10:23:10;13.17;;;12.67;;
15816;SDS011;8009;50.070;8.232;2023-04-23T10:25:42;12.40;;;11.90;;
15816;SDS011;8009;50.070;8.232;2023-04-23T10:28:13;13.07;;;12.57;;
15816;SDS011;8009;50.070;8.232;2023-04-23T10:30:45;13.97;;;13.47;;
15816;SDS011;8009;50.070;8.232;2023-04-23T10:33:15;13.20;;;12.70;;
15816;SDS011;8009;50.070;8.232;2023-04-23T10:35:47;13.10;;;12.60;;
15816;SDS011;8009;50.070;8.232;2023-04-23T10:38:16;12.90;;;12.40;;
15816;SDS011;8009;50.070;8.232;2023-04-23T10:40:49;14.87;;;14.33;;
15816;SDS011;8009;50.070;8.232;2023-04-23T10:43:20;11.45;;;11.05;;
15816;SDS011;8009;50.070;8.232;2023-04-23T10:45:49;13.63;;;13.13;;
15816;SDS011;8009;50.070;8.232;2023-04-23T10:48:19;12.90;;;12.40;;
15816;SDS011;8009;50.070;8.232;2023-04-23T10:50:47;11.77;;;11.37;;
15816;SDS011;8009;50.070;8.232;2023-04-23T10:53:25;11.73;;;11.33;;
15816;SDS011;8009;50.070;8.232;2023-04-23T10:56:06;12.73;;;12.23;;
15816;SDS011;8009;50.070;8.232;2023-04-23T10:58:47;11.67;;;11.27;;
15816;SDS011;8009;50.070;8.232;2023-04-23T11:01:16;13.00;;;12.50;;
15816;SDS011;8009;50.070;8.232;2023-04-23T11:03:46;13.40;;;12.90;;
15816;SDS011;8009;50.070;8.232;2023-04-23T11:06:18;13.57;;;13.07;;
15816;SDS011;8009;50.070;8.232;2023-04-23T11:11:57;12.00;;;11.60;;
15816;SDS011;8009;50.070;8.232;2023-04-23T11:14:33;11.70;;;11.30;;
15816;SDS011;8009;50.070;8.232;2023-04-23T11:17:03;11.20;;;10.80;;
15816;SDS011;8009;50.070;8.232;2023-04-23T11:19:34;11.70;;;11.30;;
15816;SDS011;8009;50.070;8.232;2023-04-23T11:22:03;13.63;;;13.13;;
15816;SDS011;8009;50.070;8.232;2023-04-23T11:24:35;13.27;;;12.77;;
15816;SDS011;8009;50.070;8.232;2023-04-23T11:27:09;12.77;;;12.27;;
15816;SDS011;8009;50.070;8.232;2023-04-23T11:29:40;11.27;;;10.87;;
15816;SDS011;8009;50.070;8.232;2023-04-23T11:32:09;13.70;;;13.20;;
15816;SDS011;8009;50.070;8.232;2023-04-23T11:34:41;11.53;;;11.13;;
15816;SDS011;8009;50.070;8.232;2023-04-23T11:37:11;12.40;;;11.93;;
15816;SDS011;8009;50.070;8.232;2023-04-23T11:39:41;11.63;;;11.23;;
15816;SDS011;8009;50.070;8.232;2023-04-23T11:42:14;11.77;;;11.37;;
15816;SDS011;8009;50.070;8.232;2023-04-23T11:44:45;13.30;;;12.80;;
15816;SDS011;8009;50.070;8.232;2023-04-23T11:47:14;11.93;;;11.53;;
15816;SDS011;8009;50.070;8.232;2023-04-23T11:49:43;14.07;;;13.57;;
15816;SDS011;8009;50.070;8.232;2023-04-23T11:52:11;11.07;;;10.67;;
15816;SDS011;8009;50.070;8.232;2023-04-23T11:54:41;12.83;;;12.33;;
15816;SDS011;8009;50.070;8.232;2023-04-23T11:57:09;11.97;;;11.57;;
15816;SDS011;8009;50.070;8.232;2023-04-23T11:59:41;12.03;;;11.63;;
15816;SDS011;8009;50.070;8.232;2023-04-23T12:02:09;14.00;;;13.50;;
15816;SDS011;8009;50.070;8.232;2023-04-23T12:04:38;13.87;;;13.37;;
15816;SDS011;8009;50.070;8.232;2023-04-23T12:07:06;12.60;;;12.10;;
15816;SDS011;8009;50.070;8.232;2023-04-23T12:09:34;11.40;;;11.00;;
15816;SDS011;8009;50.070;8.232;2023-04-23T12:12:03;13.50;;;13.00;;
15816;SDS011;8009;50.070;8.232;2023-04-23T12:14:32;12.30;;;11.87;;
15816;SDS011;8009;50.070;8.232;2023-04-23T12:17:10;13.67;;;13.17;;
15816;SDS011;8009;50.070;8.232;2023-04-23T12:19:39;12.60;;;12.10;;
15816;SDS011;8009;50.070;8.232;2023-04-23T12:22:11;12.83;;;12.33;;
15816;SDS011;8009;50.070;8.232;2023-04-23T12:24:46;11.93;;;11.53;;
15816;SDS011;8009;50.070;8.232;2023-04-23T12:27:18;13.23;;;12.73;;
15816;SDS011;8009;50.070;8.232;2023-04-23T12:29:48;12.40;;;11.93;;
15816;SDS011;8009;50.070;8.232;2023-04-23T12:32:28;13.07;;;12.57;;
15816;SDS011;8009;50.070;8.232;2023-04-23T12:34:59;10.90;;;10.50;;
15816;SDS011;8009;50.070;8.232;2023-04-23T12:37:30;10.27;;;9.87;;
15816;SDS011;8009;50.070;8.232;2023-04-23T12:40:03;12.77;;;12.27;;
15816;SDS011;8009;50.070;8.232;2023-04-23T12:42:33;12.07;;;11.67;;
15816;SDS011;8009;50.070;8.232;2023-04-23T12:45:06;10.60;;;10.20;;
15816;SDS011;8009;50.070;8.232;2023-04-23T12:47:39;12.20;;;11.70;;
15816;SDS011;8009;50.070;8.232;2023-04-23T12:50:07;12.23;;;11.83;;
15816;SDS011;8009;50.070;8.232;2023-04-23T12:52:36;11.13;;;10.73;;
15816;SDS011;8009;50.070;8.232;2023-04-23T12:55:07;13.23;;;12.73;;
15816;SDS011;8009;50.070;8.232;2023-04-23T12:57:35;10.83;;;10.43;;
15816;SDS011;8009;50.070;8.232;2023-04-23T13:00:04;12.40;;;11.73;;
15816;SDS011;8009;50.070;8.232;2023-04-23T13:02:34;11.47;;;11.07;;
15816;SDS011;8009;50.070;8.232;2023-04-23T13:05:05;12.80;;;12.30;;
15816;SDS011;8009;50.070;8.232;2023-04-23T13:07:34;13.80;;;13.30;;
15816;SDS011;8009;50.070;8.232;2023-04-23T13:10:02;13.10;;;12.60;;
15816;SDS011;8009;50.070;8.232;2023-04-23T13:12:31;13.57;;;13.07;;
15816;SDS011;8009;50.070;8.232;2023-04-23T13:15:00;13.30;;;12.80;;
15816;SDS011;8009;50.070;8.232;2023-04-23T13:17:29;13.13;;;12.63;;
15816;SDS011;8009;50.070;8.232;2023-04-23T13:19:57;14.23;;;13.73;;
15816;SDS011;8009;50.070;8.232;2023-04-23T13:22:28;13.67;;;13.17;;
15816;SDS011;8009;50.070;8.232;2023-04-23T13:24:57;13.80;;;13.30;;
15816;SDS011;8009;50.070;8.232;2023-04-23T13:27:26;11.00;;;10.60;;
15816;SDS011;8009;50.070;8.232;2023-04-23T13:29:55;11.73;;;11.33;;
15816;SDS011;8009;50.070;8.232;2023-04-23T13:32:24;12.17;;;11.77;;
15816;SDS011;8009;50.070;8.232;2023-04-23T13:34:56;10.13;;;9.73;;
15816;SDS011;8009;50.070;8.232;2023-04-23T13:37:28;11.03;;;10.63;;
15816;SDS011;8009;50.070;8.232;2023-04-23T13:39:57;11.10;;;10.70;;
15816;SDS011;8009;50.070;8.232;2023-04-23T13:42:25;11.47;;;11.03;;
15816;SDS011;8009;50.070;8.232;2023-04-23T13:44:54;12.57;;;12.07;;
15816;SDS011;8009;50.070;8.232;2023-04-23T13:47:22;12.90;;;12.40;;
15816;SDS011;8009;50.070;8.232;2023-04-23T13:49:52;12.07;;;11.67;;
15816;SDS011;8009;50.070;8.232;2023-04-23T13:52:20;10.57;;;10.17;;
15816;SDS011;8009;50.070;8.232;2023-04-23T13:54:51;11.70;;;11.30;;
15816;SDS011;8009;50.070;8.232;2023-04-23T13:57:21;12.17;;;11.73;;
15816;SDS011;8009;50.070;8.232;2023-04-23T13:59:50;11.23;;;10.83;;
15816;SDS011;8009;50.070;8.232;2023-04-23T14:02:19;10.70;;;10.30;;
15816;SDS011;8009;50.070;8.232;2023-04-23T14:04:48;11.73;;;11.33;;
15816;SDS011;8009;50.070;8.232;2023-04-23T14:07:17;11.73;;;11.33;;
15816;SDS011;8009;50.070;8.232;2023-04-23T14:09:45;10.83;;;10.43;;
15816;SDS011;8009;50.070;8.232;2023-04-23T14:12:19;11.77;;;11.37;;
15816;SDS011;8009;50.070;8.232;2023-04-23T14:14:48;11.27;;;10.87;;
15816;SDS011;8009;50.070;8.232;2023-04-23T14:17:17;11.90;;;11.47;;
15816;SDS011;8009;50.070;8.232;2023-04-23T14:19:47;11.90;;;11.50;;
15816;SDS011;8009;50.070;8.232;2023-04-23T14:22:16;11.60;;;11.20;;
15816;SDS011;8009;50.070;8.232;2023-04-23T14:24:44;12.13;;;11.67;;
15816;SDS011;8009;50.070;8.232;2023-04-23T14:27:18;11.33;;;10.93;;
15816;SDS011;8009;50.070;8.232;2023-04-23T14:29:49;12.00;;;11.60;;
15816;SDS011;8009;50.070;8.232;2023-04-23T14:32:19;13.00;;;12.50;;
15816;SDS011;8009;50.070;8.232;2023-04-23T14:34:47;12.13;;;11.70;;
15816;SDS011;8009;50.070;8.232;2023-04-23T14:37:15;11.83;;;11.43;;
15816;SDS011;8009;50.070;8.232;2023-04-23T14:39:44;12.50;;;12.00;;
15816;SDS011;8009;50.070;8.232;2023-04-23T14:42:13;13.27;;;12.77;;
15816;SDS011;8009;50.070;8.232;2023-04-23T14:44:44;13.53;;;13.03;;
15816;SDS011;8009;50.070;8.232;2023-04-23T14:47:12;12.50;;;12.03;;
15816;SDS011;8009;50.070;8.232;2023-04-23T14:49:43;15.70;;;15.10;;
15816;SDS011;8009;50.070;8.232;2023-04-23T14:52:11;14.07;;;13.57;;
15816;SDS011;8009;50.070;8.232;2023-04-23T14:54:39;13.67;;;13.17;;
15816;SDS011;8009;50.070;8.232;2023-04-23T14:57:08;12.40;;;11.97;;
15816;SDS011;8009;50.070;8.232;2023-04-23T14:59:36;11.50;;;11.10;;
15816;SDS011;8009;50.070;8.232;2023-04-23T15:02:07;12.60;;;12.10;;
15816;SDS011;8009;50.070;8.232;2023-04-23T15:04:36;12.57;;;12.07;;
15816;SDS011;8009;50.070;8.232;2023-04-23T15:07:04;11.63;;;11.23;;
15816;SDS011;8009;50.070;8.232;2023-04-23T15:09:32;11.87;;;11.47;;
15816;SDS011;8009;50.070;8.232;2023-04-23T15:12:01;12.30;;;11.83;;
15816;SDS011;8009;50.070;8.232;2023-04-23T15:14:35;12.30;;;11.83;;
15816;SDS011;8009;50.070;8.232;2023-04-23T15:17:07;12.20;;;11.80;;
15816;SDS011;8009;50.070;8.232;2023-04-23T15:19:37;12.23;;;11.83;;
15816;SDS011;8009;50.070;8.232;2023-04-23T15:22:06;12.10;;;11.70;;
15816;SDS011;8009;50.070;8.232;2023-04-23T15:24:35;12.80;;;12.30;;